createdAt,value
2016-07-20T00:00:30.963Z,99.99
2016-07-20T00:01:30.965Z,99.99
2016-07-20T00:02:30.955Z,99.99
2016-07-20T00:03:30.951Z,99.99
2016-07-20T00:04:30.991Z,99.99
2016-07-20T00:05:30.966Z,99.99
2016-07-20T00:06:30.988Z,99.99
2016-07-20T00:07:30.991Z,99.99
2016-07-20T00:08:30.987Z,99.99
2016-07-20T00:09:30.996Z,99.99
2016-07-20T00:10:30.973Z,99.99
2016-07-20T00:11:30.994Z,99.99
2016-07-20T00:12:31.015Z,99.99
2016-07-20T00:13:30.981Z,99.99
2016-07-20T00:14:30.988Z,99.99
2016-07-20T00:15:30.997Z,99.99
2016-07-20T00:16:30.972Z,99.99
2016-07-20T00:17:30.974Z,99.99
2016-07-20T00:18:30.981Z,99.99
2016-07-20T00:19:31.227Z,99.99
2016-07-20T00:20:30.985Z,99.99
2016-07-20T00:21:30.995Z,99.99
2016-07-20T00:22:31.026Z,99.99
2016-07-20T00:23:31.001Z,99.99
2016-07-20T00:24:30.996Z,99.99
2016-07-20T00:25:30.989Z,99.99
2016-07-20T00:26:30.988Z,99.99
2016-07-20T00:27:30.991Z,99.99
2016-07-20T00:28:30.993Z,99.99
2016-07-20T00:29:30.998Z,99.99
2016-07-20T00:30:31.019Z,99.99
2016-07-20T00:31:31.015Z,99.99
2016-07-20T00:32:30.991Z,99.99
2016-07-20T00:33:31.028Z,99.99
2016-07-20T00:34:30.987Z,99.99
2016-07-20T00:35:30.993Z,99.99
2016-07-20T00:36:31.010Z,99.99
2016-07-20T00:37:31.060Z,99.99
2016-07-20T00:38:31.010Z,99.99
2016-07-20T00:39:31.019Z,99.99
2016-07-20T00:40:31.003Z,99.99
2016-07-20T00:41:31.015Z,99.99
2016-07-20T00:42:31.003Z,99.99
2016-07-20T00:43:30.993Z,99.99
2016-07-20T00:44:31.016Z,99.99
2016-07-20T00:45:31.179Z,99.99
2016-07-20T00:46:31.000Z,99.99
2016-07-20T00:47:31.084Z,99.99
2016-07-20T00:48:31.049Z,99.99
2016-07-20T00:49:31.029Z,99.99
2016-07-20T00:50:31.020Z,99.99
2016-07-20T00:51:31.052Z,99.99
2016-07-20T00:52:31.067Z,99.99
2016-07-20T00:53:31.022Z,99.99
2016-07-20T00:54:31.032Z,99.99
2016-07-20T00:55:31.017Z,99.99
2016-07-20T00:56:31.024Z,99.99
2016-07-20T00:57:31.029Z,99.99
2016-07-20T00:58:31.023Z,99.99
2016-07-20T00:59:31.030Z,99.99
2016-07-20T01:00:31.019Z,99.99
2016-07-20T01:01:31.031Z,99.99
2016-07-20T01:02:31.043Z,99.99
2016-07-20T01:03:31.027Z,99.99
2016-07-20T01:04:31.032Z,99.99
2016-07-20T01:05:31.020Z,99.99
2016-07-20T01:06:31.191Z,99.99
2016-07-20T01:07:31.096Z,99.99
2016-07-20T01:08:31.033Z,99.99
2016-07-20T01:09:31.028Z,99.99
2016-07-20T01:10:31.051Z,99.99
2016-07-20T01:11:31.027Z,99.99
2016-07-20T01:12:31.094Z,99.99
2016-07-20T01:13:31.052Z,99.99
2016-07-20T01:14:31.050Z,99.99
2016-07-20T01:15:31.183Z,99.99
2016-07-20T01:16:31.044Z,99.99
2016-07-20T01:17:31.038Z,99.99
2016-07-20T01:18:31.049Z,99.99
2016-07-20T01:19:31.036Z,99.99
2016-07-20T01:20:31.062Z,99.99
2016-07-20T01:21:31.038Z,99.99
2016-07-20T01:22:31.030Z,99.99
2016-07-20T01:23:31.052Z,99.99
2016-07-20T01:24:31.046Z,99.99
2016-07-20T01:25:31.047Z,99.99
2016-07-20T01:26:31.048Z,99.99
2016-07-20T01:27:31.051Z,99.99
2016-07-20T01:28:31.045Z,99.99
2016-07-20T01:29:31.055Z,99.99
2016-07-20T01:30:31.037Z,99.99
2016-07-20T01:31:31.034Z,99.99
2016-07-20T01:32:31.040Z,99.99
2016-07-20T01:33:31.047Z,99.99
2016-07-20T01:34:31.049Z,99.99
2016-07-20T01:35:31.055Z,99.99
2016-07-20T01:36:31.042Z,99.99
2016-07-20T01:37:31.038Z,99.99
2016-07-20T01:38:31.027Z,99.99
2016-07-20T01:39:31.059Z,99.99
2016-07-20T01:40:31.056Z,99.99
2016-07-20T01:41:31.088Z,99.99
2016-07-20T01:42:31.056Z,99.99
2016-07-20T01:43:31.058Z,99.99
2016-07-20T01:44:31.063Z,99.99
2016-07-20T01:45:31.083Z,99.99
2016-07-20T01:46:31.077Z,99.99
2016-07-20T01:47:31.069Z,99.99
2016-07-20T01:48:31.083Z,99.99
2016-07-20T01:49:31.081Z,99.99
2016-07-20T01:50:31.088Z,99.99
2016-07-20T01:51:31.081Z,99.99
2016-07-20T01:52:31.069Z,99.99
2016-07-20T01:53:31.081Z,99.99
2016-07-20T01:54:31.054Z,99.99
2016-07-20T01:55:31.073Z,99.99
2016-07-20T01:56:31.117Z,99.99
2016-07-20T01:57:31.084Z,99.99
2016-07-20T01:58:31.083Z,99.99
2016-07-20T01:59:31.078Z,99.99
2016-07-20T02:00:31.227Z,99.99
2016-07-20T02:01:31.084Z,99.99
2016-07-20T02:02:31.091Z,99.99
2016-07-20T02:03:31.071Z,99.99
2016-07-20T02:04:31.083Z,99.99
2016-07-20T02:05:31.090Z,99.99
2016-07-20T02:06:31.091Z,99.99
2016-07-20T02:07:31.081Z,99.99
2016-07-20T02:08:31.087Z,99.99
2016-07-20T02:09:31.082Z,99.99
2016-07-20T02:10:31.106Z,99.99
2016-07-20T02:11:31.085Z,99.99
2016-07-20T02:12:31.121Z,99.99
2016-07-20T02:13:31.084Z,99.99
2016-07-20T02:14:31.116Z,99.99
2016-07-20T02:15:31.118Z,99.99
2016-07-20T02:16:31.091Z,99.99
2016-07-20T02:17:31.112Z,99.99
2016-07-20T02:18:31.115Z,99.99
2016-07-20T02:19:31.078Z,99.99
2016-07-20T02:20:31.108Z,99.99
2016-07-20T02:21:31.115Z,99.99
2016-07-20T02:22:31.089Z,99.99
2016-07-20T02:23:31.115Z,99.99
2016-07-20T02:24:31.103Z,99.99
2016-07-20T02:25:31.115Z,99.99
2016-07-20T02:26:31.117Z,99.99
2016-07-20T02:27:31.112Z,99.99
2016-07-20T02:28:31.114Z,99.99
2016-07-20T02:29:31.091Z,99.99
2016-07-20T02:30:31.115Z,99.99
2016-07-20T02:31:31.118Z,99.99
2016-07-20T02:32:31.110Z,99.99
2016-07-20T02:33:31.111Z,99.99
2016-07-20T02:34:31.097Z,99.99
2016-07-20T02:35:31.121Z,99.99
2016-07-20T02:36:31.329Z,99.99
2016-07-20T02:37:31.144Z,99.99
2016-07-20T02:38:31.127Z,99.99
2016-07-20T02:39:31.126Z,99.99
2016-07-20T02:40:31.120Z,99.99
2016-07-20T02:41:31.103Z,99.99
2016-07-20T02:42:31.146Z,99.99
2016-07-20T02:43:31.117Z,99.99
2016-07-20T02:44:31.116Z,99.99
2016-07-20T02:45:31.153Z,99.99
2016-07-20T02:46:31.168Z,99.99
2016-07-20T02:47:31.221Z,99.99
2016-07-20T02:48:31.125Z,99.99
2016-07-20T02:49:31.117Z,99.99
2016-07-20T02:50:31.125Z,99.99
2016-07-20T02:51:31.149Z,99.99
2016-07-20T02:52:31.141Z,99.99
2016-07-20T02:53:31.178Z,99.99
2016-07-20T02:54:31.151Z,99.99
2016-07-20T02:55:31.148Z,99.99
2016-07-20T02:56:31.134Z,99.99
2016-07-20T02:57:31.147Z,99.99
2016-07-20T02:58:31.208Z,99.99
2016-07-20T02:59:31.145Z,99.99
2016-07-20T03:00:31.122Z,99.99
2016-07-20T03:01:31.148Z,99.99
2016-07-20T03:02:31.142Z,99.99
2016-07-20T03:03:31.157Z,99.99
2016-07-20T03:04:31.133Z,99.99
2016-07-20T03:05:31.140Z,99.99
2016-07-20T03:06:31.157Z,99.99
2016-07-20T03:07:31.133Z,99.99
2016-07-20T03:08:31.149Z,99.99
2016-07-20T03:09:31.133Z,99.99
2016-07-20T03:10:31.151Z,99.99
2016-07-20T03:11:31.139Z,99.99
2016-07-20T03:12:31.352Z,99.99
2016-07-20T03:13:31.178Z,99.99
2016-07-20T03:14:31.139Z,99.99
2016-07-20T03:15:31.148Z,99.99
2016-07-20T03:16:31.135Z,99.99
2016-07-20T03:17:31.151Z,99.99
2016-07-20T03:18:31.439Z,99.99
2016-07-20T03:19:31.157Z,99.99
2016-07-20T03:20:31.180Z,99.99
2016-07-20T03:21:31.151Z,99.99
2016-07-20T03:22:31.149Z,99.99
2016-07-20T03:23:31.214Z,99.99
2016-07-20T03:24:31.180Z,99.99
2016-07-20T03:25:31.178Z,99.99
2016-07-20T03:26:31.209Z,99.99
2016-07-20T03:27:31.185Z,99.99
2016-07-20T03:28:31.179Z,99.99
2016-07-20T03:29:31.180Z,99.99
2016-07-20T03:30:31.179Z,99.99
2016-07-20T03:31:31.183Z,99.99
2016-07-20T03:32:31.160Z,99.99
2016-07-20T03:33:31.169Z,99.99
2016-07-20T03:34:31.180Z,99.99
2016-07-20T03:35:31.153Z,99.99
2016-07-20T03:36:31.163Z,99.99
2016-07-20T03:37:31.178Z,99.99
2016-07-20T03:38:31.210Z,99.99
2016-07-20T03:39:31.173Z,99.99
2016-07-20T03:40:31.154Z,99.99
2016-07-20T03:41:31.180Z,99.99
2016-07-20T03:42:31.184Z,99.99
2016-07-20T03:43:31.180Z,99.99
2016-07-20T03:44:31.171Z,99.99
2016-07-20T03:45:31.181Z,99.99
2016-07-20T03:46:31.168Z,99.99
2016-07-20T03:47:31.229Z,99.99
2016-07-20T03:48:31.211Z,99.99
2016-07-20T03:49:41.110Z,99.99
2016-07-20T03:50:31.182Z,99.99
2016-07-20T03:51:31.185Z,99.99
2016-07-20T03:52:31.171Z,99.99
2016-07-20T03:53:31.211Z,99.99
2016-07-20T03:54:31.182Z,99.99
2016-07-20T03:55:31.192Z,99.99
2016-07-20T03:56:31.187Z,99.99
2016-07-20T03:57:31.178Z,99.99
2016-07-20T03:58:31.212Z,99.99
2016-07-20T03:59:31.180Z,99.99
2016-07-20T04:00:31.241Z,99.99
2016-07-20T04:01:31.185Z,99.99
2016-07-20T04:02:31.194Z,99.99
2016-07-20T04:03:31.243Z,99.99
2016-07-20T04:04:31.211Z,99.99
2016-07-20T04:05:31.227Z,99.99
2016-07-20T04:06:31.198Z,99.99
2016-07-20T04:07:31.245Z,99.99
2016-07-20T04:08:31.224Z,99.99
2016-07-20T04:09:31.211Z,99.99
2016-07-20T04:10:31.191Z,99.99
2016-07-20T04:11:31.221Z,99.99
2016-07-20T04:12:31.199Z,99.99
2016-07-20T04:13:31.212Z,99.99
2016-07-20T04:14:31.215Z,99.99
2016-07-20T04:15:31.205Z,99.99
2016-07-20T04:16:31.212Z,99.99
2016-07-20T04:17:31.205Z,99.99
2016-07-20T04:18:31.212Z,99.99
2016-07-20T04:19:31.226Z,99.99
2016-07-20T04:20:31.218Z,99.99
2016-07-20T04:21:31.240Z,99.99
2016-07-20T04:22:31.248Z,99.99
2016-07-20T04:23:31.224Z,99.99
2016-07-20T04:24:31.216Z,99.99
2016-07-20T04:25:31.209Z,99.99
2016-07-20T04:26:31.212Z,99.99
2016-07-20T04:27:31.232Z,99.99
2016-07-20T04:28:31.236Z,99.99
2016-07-20T04:29:31.246Z,99.99
2016-07-20T04:30:31.241Z,99.99
2016-07-20T04:31:31.231Z,99.99
2016-07-20T04:32:31.240Z,99.99
2016-07-20T04:33:31.219Z,99.99
2016-07-20T04:34:31.250Z,99.99
2016-07-20T04:35:31.213Z,99.99
2016-07-20T04:36:31.246Z,99.99
2016-07-20T04:37:31.210Z,99.99
2016-07-20T04:38:31.277Z,99.99
2016-07-20T04:39:31.285Z,99.99
2016-07-20T04:40:31.249Z,99.99
2016-07-20T04:41:31.250Z,99.99
2016-07-20T04:42:31.304Z,99.99
2016-07-20T04:43:31.243Z,99.99
2016-07-20T04:44:31.230Z,99.99
2016-07-20T04:45:31.267Z,99.99
2016-07-20T04:46:31.305Z,99.78
2016-07-20T04:47:31.274Z,99.99
2016-07-20T04:48:31.249Z,99.99
2016-07-20T04:49:31.235Z,99.98
2016-07-20T04:50:31.243Z,99.88
2016-07-20T04:51:31.248Z,99.26
2016-07-20T04:52:31.280Z,99.49
2016-07-20T04:53:31.279Z,99.73
2016-07-20T04:54:31.279Z,99.99
2016-07-20T04:55:31.323Z,99.44
2016-07-20T04:56:31.281Z,98.58
2016-07-20T04:57:31.316Z,98.77
2016-07-20T04:58:31.290Z,98.1
2016-07-20T04:59:31.287Z,98.1
2016-07-20T05:00:31.279Z,97.71
2016-07-20T05:01:31.242Z,97.81
2016-07-20T05:02:31.277Z,97.76
2016-07-20T05:03:31.257Z,97.52
2016-07-20T05:04:31.280Z,97.76
2016-07-20T05:05:31.260Z,97.91
2016-07-20T05:06:31.234Z,96.22
2016-07-20T05:07:31.258Z,96.42
2016-07-20T05:08:31.307Z,96.51
2016-07-20T05:09:31.262Z,96.61
2016-07-20T05:10:31.247Z,96.12
2016-07-20T05:11:31.274Z,96.03
2016-07-20T05:12:31.244Z,96.7
2016-07-20T05:13:31.242Z,96.03
2016-07-20T05:14:31.272Z,95.84
2016-07-20T05:15:31.266Z,95.65
2016-07-20T05:16:31.285Z,95.5
2016-07-20T05:17:31.260Z,95.26
2016-07-20T05:18:31.253Z,94.64
2016-07-20T05:19:31.282Z,94.44
2016-07-20T05:20:31.268Z,94.34
2016-07-20T05:21:31.349Z,94.06
2016-07-20T05:22:31.273Z,94.25
2016-07-20T05:23:31.272Z,94.25
2016-07-20T05:24:31.273Z,94.25
2016-07-20T05:25:31.269Z,93.87
2016-07-20T05:26:31.275Z,94.34
2016-07-20T05:27:31.275Z,92.8
2016-07-20T05:28:31.274Z,92.52
2016-07-20T05:29:31.290Z,91.17
2016-07-20T05:30:31.283Z,91.46
2016-07-20T05:31:31.253Z,91.89
2016-07-20T05:32:31.306Z,91.21
2016-07-20T05:33:31.294Z,91.02
2016-07-20T05:34:31.311Z,90.73
2016-07-20T05:35:31.306Z,90.64
2016-07-20T05:36:31.313Z,90.16
2016-07-20T05:37:31.278Z,90.73
2016-07-20T05:38:31.285Z,90.34
2016-07-20T05:39:31.278Z,89.58
2016-07-20T05:40:31.277Z,90.39
2016-07-20T05:41:31.273Z,89.48
2016-07-20T05:42:31.280Z,90.2
2016-07-20T05:43:31.304Z,89.72
2016-07-20T05:44:31.312Z,89.81
2016-07-20T05:45:31.304Z,89.33
2016-07-20T05:46:31.298Z,88.65
2016-07-20T05:47:31.308Z,88.65
2016-07-20T05:48:31.355Z,89.04
2016-07-20T05:49:31.318Z,88.56
2016-07-20T05:50:31.339Z,88.65
2016-07-20T05:51:31.343Z,88.37
2016-07-20T05:52:31.320Z,87.35
2016-07-20T05:53:31.311Z,87.06
2016-07-20T05:54:31.337Z,86
2016-07-20T05:55:31.312Z,86.39
2016-07-20T05:56:31.314Z,86.87
2016-07-20T05:57:31.340Z,86.58
2016-07-20T05:58:31.338Z,86.1
2016-07-20T05:59:31.351Z,85.37
2016-07-20T06:00:32.925Z,84.75
2016-07-20T06:01:31.307Z,84.69
2016-07-20T06:02:31.324Z,84.79
2016-07-20T06:03:31.308Z,84.31
2016-07-20T06:04:31.369Z,84.79
2016-07-20T06:05:31.306Z,84.01
2016-07-20T06:06:31.332Z,84.79
2016-07-20T06:07:31.307Z,83.63
2016-07-20T06:08:31.312Z,83.39
2016-07-20T06:09:31.321Z,84.54
2016-07-20T06:10:31.339Z,84.74
2016-07-20T06:11:31.347Z,83.29
2016-07-20T06:12:31.311Z,83.58
2016-07-20T06:13:31.332Z,83.39
2016-07-20T06:14:31.352Z,83.87
2016-07-20T06:15:31.428Z,83.29
2016-07-20T06:16:31.352Z,83.58
2016-07-20T06:17:31.339Z,82.46
2016-07-20T06:18:31.399Z,82.56
2016-07-20T06:19:31.404Z,83.04
2016-07-20T06:20:31.411Z,81.59
2016-07-20T06:21:31.371Z,81.3
2016-07-20T06:22:31.413Z,80.82
2016-07-20T06:23:31.422Z,80.72
2016-07-20T06:24:31.419Z,80.72
2016-07-20T06:25:31.347Z,80.24
2016-07-20T06:26:31.400Z,79.02
2016-07-20T06:27:31.374Z,79.99
2016-07-20T06:28:31.361Z,79.99
2016-07-20T06:29:31.332Z,80.66
2016-07-20T06:30:31.354Z,79.89
2016-07-20T06:31:31.644Z,79.16
2016-07-20T06:32:31.421Z,79.35
2016-07-20T06:33:31.488Z,80.12
2016-07-20T06:34:31.392Z,79.64
2016-07-20T06:35:31.369Z,79.93
2016-07-20T06:36:31.358Z,79.64
2016-07-20T06:37:31.339Z,78.09
2016-07-20T06:38:31.342Z,76.64
2016-07-20T06:39:31.378Z,76.97
2016-07-20T06:40:31.342Z,76.68
2016-07-20T06:41:31.364Z,76.16
2016-07-20T06:42:31.387Z,75.91
2016-07-20T06:43:31.378Z,76.39
2016-07-20T06:44:31.354Z,76.14
2016-07-20T06:45:31.376Z,76.24
2016-07-20T06:46:31.374Z,74.69
2016-07-20T06:47:31.375Z,74.3
2016-07-20T06:48:31.384Z,73.91
2016-07-20T06:49:31.344Z,72.98
2016-07-20T06:50:31.369Z,74.53
2016-07-20T06:51:31.382Z,73.95
2016-07-20T06:52:31.479Z,73.47
2016-07-20T06:53:31.378Z,73.18
2016-07-20T06:54:31.376Z,72.24
2016-07-20T06:55:31.569Z,71.12
2016-07-20T06:56:31.924Z,68.96
2016-07-20T06:57:31.390Z,67.47
2016-07-20T06:58:31.372Z,63.84
2016-07-20T06:59:32.021Z,63
2016-07-20T07:00:31.371Z,58.97
2016-07-20T07:01:31.368Z,58.06
2016-07-20T07:02:31.369Z,55.55
2016-07-20T07:03:31.371Z,54.93
2016-07-20T07:04:31.408Z,53.19
2016-07-20T07:05:31.369Z,51.82
2016-07-20T07:06:31.395Z,51.2
2016-07-20T07:07:31.381Z,50.05
2016-07-20T07:08:31.369Z,48.31
2016-07-20T07:09:31.356Z,47.55
2016-07-20T07:10:31.403Z,47.08
2016-07-20T07:11:31.406Z,46.79
2016-07-20T07:12:31.382Z,45.72
2016-07-20T07:13:31.431Z,46.13
2016-07-20T07:14:31.384Z,45.95
2016-07-20T07:15:31.375Z,45.66
2016-07-20T07:16:31.400Z,45.29
2016-07-20T07:17:31.392Z,44.13
2016-07-20T07:18:31.382Z,44.13
2016-07-20T07:19:31.424Z,44.06
2016-07-20T07:20:31.390Z,42.29
2016-07-20T07:21:31.432Z,42.61
2016-07-20T07:22:31.421Z,42.41
2016-07-20T07:23:31.415Z,41.25
2016-07-20T07:24:31.412Z,41.53
2016-07-20T07:25:31.513Z,41.92
2016-07-20T07:26:31.938Z,41.84
2016-07-20T07:27:31.406Z,40.86
2016-07-20T07:28:31.399Z,38.82
2016-07-20T07:29:31.386Z,40.19
2016-07-20T07:30:31.421Z,40.39
2016-07-20T07:31:31.402Z,39.42
2016-07-20T07:32:31.432Z,39.03
2016-07-20T07:33:31.447Z,39.03
2016-07-20T07:34:31.415Z,38.34
2016-07-20T07:35:31.409Z,38.56
2016-07-20T07:36:31.506Z,37.97
2016-07-20T07:37:31.411Z,38.85
2016-07-20T07:38:33.011Z,38.74
2016-07-20T07:39:39.424Z,38.36
2016-07-20T07:40:33.384Z,38.46
2016-07-20T07:41:34.536Z,38.26
2016-07-20T07:42:32.088Z,38.76
2016-07-20T07:43:31.788Z,39.32
2016-07-20T07:44:31.982Z,38.46
2016-07-20T07:45:31.931Z,39.13
2016-07-20T07:46:31.866Z,38.26
2016-07-20T07:47:31.443Z,37.57
2016-07-20T07:48:31.501Z,38.05
2016-07-20T07:49:31.430Z,37.95
2016-07-20T07:50:31.429Z,38.34
2016-07-20T07:51:31.415Z,38.93
2016-07-20T07:52:31.418Z,40.11
2016-07-20T07:53:31.441Z,40.98
2016-07-20T07:54:31.726Z,40.29
2016-07-20T07:55:31.431Z,38.92
2016-07-20T07:56:31.409Z,39.48
2016-07-20T07:57:31.434Z,39
2016-07-20T07:58:31.452Z,40.17
2016-07-20T07:59:31.440Z,40.06
2016-07-20T08:00:31.444Z,40.45
2016-07-20T08:01:31.472Z,41.8
2016-07-20T08:02:31.456Z,41.71
2016-07-20T08:03:31.437Z,41.9
2016-07-20T08:04:31.434Z,42.57
2016-07-20T08:05:31.526Z,42.66
2016-07-20T08:06:31.477Z,43.15
2016-07-20T08:07:31.460Z,42.27
2016-07-20T08:08:31.450Z,42.18
2016-07-20T08:09:31.438Z,42.94
2016-07-20T08:10:31.477Z,43.13
2016-07-20T08:11:31.755Z,45
2016-07-20T08:12:31.474Z,44.68
2016-07-20T08:13:31.481Z,43.68
2016-07-20T08:14:31.469Z,44.37
2016-07-20T08:15:31.452Z,43.98
2016-07-20T08:16:31.465Z,44.46
2016-07-20T08:17:31.471Z,45.93
2016-07-20T08:18:31.506Z,45.15
2016-07-20T08:19:31.514Z,46.2
2016-07-20T08:20:31.508Z,47.28
2016-07-20T08:21:31.513Z,46.47
2016-07-20T08:22:31.463Z,45.98
2016-07-20T08:23:31.481Z,46.86
2016-07-20T08:24:31.527Z,46.86
2016-07-20T08:25:31.474Z,47.06
2016-07-20T08:26:31.477Z,46.65
2016-07-20T08:27:31.524Z,46.75
2016-07-20T08:28:31.467Z,46.84
2016-07-20T08:29:31.507Z,46.84
2016-07-20T08:30:31.576Z,47.7
2016-07-20T08:31:31.533Z,49.16
2016-07-20T08:32:31.527Z,48.09
2016-07-20T08:33:31.575Z,48.48
2016-07-20T08:34:31.504Z,49.95
2016-07-20T08:35:31.482Z,47.7
2016-07-20T08:36:31.719Z,47.8
2016-07-20T08:37:31.506Z,49.26
2016-07-20T08:38:31.557Z,49.33
2016-07-20T08:39:31.502Z,49.14
2016-07-20T08:40:31.476Z,47.87
2016-07-20T08:41:31.487Z,49.53
2016-07-20T08:42:31.513Z,49.92
2016-07-20T08:43:31.538Z,49.04
2016-07-20T08:44:31.514Z,47.67
2016-07-20T08:45:32.102Z,47.77
2016-07-20T08:46:31.580Z,49.14
2016-07-20T08:47:31.495Z,49.24
2016-07-20T08:48:31.565Z,48.75
2016-07-20T08:49:31.497Z,48.24
2016-07-20T08:50:31.502Z,49.22
2016-07-20T08:51:31.498Z,49.41
2016-07-20T08:52:31.504Z,49.71
2016-07-20T08:53:31.524Z,49.8
2016-07-20T08:54:31.503Z,49.61
2016-07-20T08:55:31.534Z,48.83
2016-07-20T08:56:31.515Z,49.61
2016-07-20T08:57:31.547Z,48.73
2016-07-20T08:58:31.544Z,48.73
2016-07-20T08:59:31.524Z,49.22
2016-07-20T09:00:31.510Z,47.95
2016-07-20T09:01:31.529Z,48.93
2016-07-20T09:02:31.590Z,48.54
2016-07-20T09:03:31.562Z,49.32
2016-07-20T09:04:31.528Z,48.46
2016-07-20T09:05:31.532Z,49.33
2016-07-20T09:06:31.717Z,47.97
2016-07-20T09:07:31.519Z,46.5
2016-07-20T09:08:31.527Z,46.99
2016-07-20T09:09:31.521Z,46.8
2016-07-20T09:10:31.559Z,47.77
2016-07-20T09:11:31.532Z,46.62
2016-07-20T09:12:31.692Z,46.89
2016-07-20T09:13:31.619Z,47.67
2016-07-20T09:14:31.532Z,47.8
2016-07-20T09:15:31.664Z,45.43
2016-07-20T09:16:32.117Z,46.89
2016-07-20T09:17:31.536Z,47.89
2016-07-20T09:18:31.534Z,47.89
2016-07-20T09:19:31.563Z,46.53
2016-07-20T09:20:31.535Z,47.8
2016-07-20T09:21:31.526Z,46.23
2016-07-20T09:22:31.556Z,46.33
2016-07-20T09:23:31.586Z,44.96
2016-07-20T09:24:31.619Z,46.04
2016-07-20T09:25:31.628Z,48.19
2016-07-20T09:26:31.622Z,46.33
2016-07-20T09:27:31.625Z,47.11
2016-07-20T09:28:31.566Z,46.04
2016-07-20T09:29:31.554Z,46.04
2016-07-20T09:30:31.556Z,46.26
2016-07-20T09:31:31.542Z,46.16
2016-07-20T09:32:31.531Z,44.89
2016-07-20T09:33:32.226Z,45.08
2016-07-20T09:34:31.572Z,47.92
2016-07-20T09:35:31.559Z,44.4
2016-07-20T09:36:31.560Z,43.81
2016-07-20T09:37:31.549Z,44.01
2016-07-20T09:38:31.599Z,44.4
2016-07-20T09:39:31.610Z,44.89
2016-07-20T09:40:31.593Z,44.1
2016-07-20T09:41:31.604Z,43.71
2016-07-20T09:42:31.568Z,44.01
2016-07-20T09:43:31.618Z,44.01
2016-07-20T09:44:31.565Z,45.1
2016-07-20T09:45:31.776Z,44.69
2016-07-20T09:46:31.595Z,44.1
2016-07-20T09:47:31.583Z,43.93
2016-07-20T09:48:31.600Z,42.95
2016-07-20T09:49:31.561Z,43.93
2016-07-20T09:50:31.567Z,42.76
2016-07-20T09:51:31.600Z,43.34
2016-07-20T09:52:31.568Z,44.13
2016-07-20T09:53:31.652Z,42.56
2016-07-20T09:54:31.565Z,44.23
2016-07-20T09:55:31.745Z,44.71
2016-07-20T09:56:31.542Z,43.24
2016-07-20T09:57:31.555Z,44.71
2016-07-20T09:58:31.652Z,43.76
2016-07-20T09:59:32.137Z,42.58
2016-07-20T10:00:31.622Z,42.38
2016-07-20T10:01:31.583Z,42.58
2016-07-20T10:02:31.595Z,41.31
2016-07-20T10:03:31.584Z,41.5
2016-07-20T10:04:31.585Z,42.29
2016-07-20T10:05:31.597Z,42.68
2016-07-20T10:06:31.599Z,42.58
2016-07-20T10:07:31.595Z,43.07
2016-07-20T10:08:31.610Z,42.68
2016-07-20T10:09:31.621Z,43.29
2016-07-20T10:10:31.593Z,42.6
2016-07-20T10:11:31.592Z,41.13
2016-07-20T10:12:31.592Z,41.52
2016-07-20T10:13:31.658Z,39.86
2016-07-20T10:14:31.643Z,38.68
2016-07-20T10:15:31.595Z,38.78
2016-07-20T10:16:31.582Z,40.64
2016-07-20T10:17:31.603Z,41.42
2016-07-20T10:18:31.622Z,39.86
2016-07-20T10:19:31.592Z,40.35
2016-07-20T10:20:31.576Z,40.94
2016-07-20T10:21:31.621Z,41.33
2016-07-20T10:22:31.595Z,40.94
2016-07-20T10:23:31.642Z,40.94
2016-07-20T10:24:31.592Z,39.17
2016-07-20T10:25:31.599Z,38.68
2016-07-20T10:26:31.624Z,38.59
2016-07-20T10:27:31.612Z,39.47
2016-07-20T10:28:31.648Z,38.88
2016-07-20T10:29:31.642Z,39.76
2016-07-20T10:30:31.640Z,39.86
2016-07-20T10:31:31.743Z,39.17
2016-07-20T10:32:31.623Z,39.86
2016-07-20T10:33:31.639Z,39.56
2016-07-20T10:34:31.628Z,38.68
2016-07-20T10:35:31.655Z,37.61
2016-07-20T10:36:32.338Z,37.71
2016-07-20T10:37:31.729Z,38.39
2016-07-20T10:38:31.740Z,38.59
2016-07-20T10:39:31.645Z,38.49
2016-07-20T10:40:31.667Z,38.41
2016-07-20T10:41:31.618Z,38.31
2016-07-20T10:42:31.617Z,37.82
2016-07-20T10:43:31.669Z,38.21
2016-07-20T10:44:31.652Z,40.06
2016-07-20T10:45:31.673Z,38.6
2016-07-20T10:46:31.643Z,39.69
2016-07-20T10:47:31.626Z,38.6
2016-07-20T10:48:31.656Z,39.69
2016-07-20T10:49:31.665Z,39.19
2016-07-20T10:50:31.647Z,39
2016-07-20T10:51:31.688Z,38.31
2016-07-20T10:52:31.654Z,38.9
2016-07-20T10:53:31.676Z,39.69
2016-07-20T10:54:31.656Z,38.9
2016-07-20T10:55:31.663Z,37.13
2016-07-20T10:56:31.654Z,39.59
2016-07-20T10:57:31.648Z,37.92
2016-07-20T10:58:31.710Z,38.51
2016-07-20T11:00:16.403Z,39
2016-07-20T11:00:31.656Z,38.12
2016-07-20T11:01:31.642Z,37.43
2016-07-20T11:02:31.648Z,38.51
2016-07-20T11:03:31.702Z,39.09
2016-07-20T11:04:31.684Z,39.19
2016-07-20T11:05:31.657Z,38.6
2016-07-20T11:06:31.685Z,38.41
2016-07-20T11:07:31.643Z,37.74
2016-07-20T11:08:31.699Z,40
2016-07-20T11:09:31.646Z,37.45
2016-07-20T11:10:31.723Z,39.09
2016-07-20T11:11:31.686Z,36.27
2016-07-20T11:12:31.690Z,36.65
2016-07-20T11:13:31.717Z,36.45
2016-07-20T11:14:31.691Z,36.06
2016-07-20T11:15:31.691Z,36.94
2016-07-20T11:16:31.693Z,36.16
2016-07-20T11:17:31.680Z,35.88
2016-07-20T11:18:31.707Z,36.08
2016-07-20T11:19:31.691Z,34.8
2016-07-20T11:20:31.816Z,35.1
2016-07-20T11:21:31.722Z,34.7
2016-07-20T11:22:31.740Z,36.37
2016-07-20T11:23:31.746Z,35.58
2016-07-20T11:24:31.724Z,35
2016-07-20T11:25:31.670Z,34.7
2016-07-20T11:26:31.677Z,34.11
2016-07-20T11:27:31.688Z,34.7
2016-07-20T11:28:31.740Z,34.7
2016-07-20T11:29:31.702Z,35.19
2016-07-20T11:30:31.695Z,35
2016-07-20T11:31:31.733Z,35.19
2016-07-20T11:32:31.713Z,34.7
2016-07-20T11:33:31.706Z,34.7
2016-07-20T11:34:31.734Z,33.43
2016-07-20T11:35:31.710Z,34.51
2016-07-20T11:36:31.726Z,33.53
2016-07-20T11:37:31.716Z,34.01
2016-07-20T11:38:31.750Z,33.82
2016-07-20T11:39:31.783Z,34.51
2016-07-20T11:40:31.758Z,35.39
2016-07-20T11:41:31.750Z,35.1
2016-07-20T11:42:31.722Z,36.27
2016-07-20T11:43:31.711Z,35.99
2016-07-20T11:44:31.718Z,33.64
2016-07-20T11:45:31.696Z,34.13
2016-07-20T11:46:31.727Z,34.61
2016-07-20T11:47:31.727Z,35.97
2016-07-20T11:48:31.723Z,34.9
2016-07-20T11:49:31.749Z,35.11
2016-07-20T11:50:31.722Z,34.61
2016-07-20T11:51:31.753Z,34.01
2016-07-20T11:52:31.756Z,35.19
2016-07-20T11:53:31.774Z,35.97
2016-07-20T11:54:31.749Z,35
2016-07-20T11:55:31.700Z,34.11
2016-07-20T11:56:31.796Z,33.14
2016-07-20T11:57:31.840Z,33.23
2016-07-20T11:58:32.466Z,34.31
2016-07-20T11:59:31.765Z,33.62
2016-07-20T12:00:31.910Z,33.92
2016-07-20T12:01:31.859Z,34.62
2016-07-20T12:02:31.775Z,34.03
2016-07-20T12:03:31.841Z,34.23
2016-07-20T12:04:31.819Z,33.05
2016-07-20T12:05:32.804Z,33.84
2016-07-20T12:06:31.759Z,33.05
2016-07-20T12:07:31.736Z,33.44
2016-07-20T12:08:31.757Z,33.64
2016-07-20T12:09:31.808Z,34.42
2016-07-20T12:10:31.758Z,34.13
2016-07-20T12:11:31.744Z,36.29
2016-07-20T12:12:31.739Z,34.62
2016-07-20T12:13:31.724Z,34.52
2016-07-20T12:14:31.725Z,35.6
2016-07-20T12:15:31.757Z,34.42
2016-07-20T12:16:31.721Z,34.72
2016-07-20T12:17:31.751Z,34.62
2016-07-20T12:18:31.756Z,34.72
2016-07-20T12:19:31.749Z,34.03
2016-07-20T12:20:31.750Z,34.52
2016-07-20T12:21:31.788Z,34.92
2016-07-20T12:22:31.753Z,34.93
2016-07-20T12:23:31.757Z,34.44
2016-07-20T12:24:31.751Z,35.11
2016-07-20T12:25:31.786Z,34.72
2016-07-20T12:26:31.748Z,34.81
2016-07-20T12:27:31.752Z,34.42
2016-07-20T12:28:31.770Z,32.87
2016-07-20T12:29:31.735Z,33.84
2016-07-20T12:30:31.747Z,33.74
2016-07-20T12:31:31.752Z,34.52
2016-07-20T12:32:31.758Z,34.62
2016-07-20T12:33:31.752Z,35.11
2016-07-20T12:34:31.754Z,35.31
2016-07-20T12:35:31.805Z,35.6
2016-07-20T12:36:31.756Z,35.41
2016-07-20T12:37:31.828Z,34.92
2016-07-20T12:38:31.824Z,35.31
2016-07-20T12:39:32.402Z,34.62
2016-07-20T12:40:31.797Z,34.13
2016-07-20T12:41:31.794Z,33.84
2016-07-20T12:42:31.772Z,33.95
2016-07-20T12:43:31.810Z,34.13
2016-07-20T12:44:31.780Z,34.52
2016-07-20T12:45:31.781Z,32.68
2016-07-20T12:46:31.808Z,33.54
2016-07-20T12:47:31.809Z,34.44
2016-07-20T12:48:31.787Z,33.94
2016-07-20T12:49:31.814Z,33.17
2016-07-20T12:50:31.800Z,32.18
2016-07-20T12:51:31.786Z,33.36
2016-07-20T12:52:31.843Z,32.78
2016-07-20T12:53:31.833Z,33.84
2016-07-20T12:54:31.764Z,33.85
2016-07-20T12:55:31.785Z,34.05